sensor_id;sensor_type;location;lat;lon;timestamp;temperature;humidity
5334;DHT22;2689;50.954;7.116;2023-12-07T00:00:40;3.40;99.90
5334;DHT22;2689;50.954;7.116;2023-12-07T00:03:06;3.50;99.90
5334;DHT22;2689;50.954;7.116;2023-12-07T00:05:33;3.50;99.90
5334;DHT22;2689;50.954;7.116;2023-12-07T00:08:00;3.50;99.90
5334;DHT22;2689;50.954;7.116;2023-12-07T00:10:26;3.50;99.90
5334;DHT22;2689;50.954;7.116;2023-12-07T00:12:53;3.50;99.90
5334;DHT22;2689;50.954;7.116;2023-12-07T00:15:21;3.50;99.90
5334;DHT22;2689;50.954;7.116;2023-12-07T00:17:48;3.60;99.90
5334;DHT22;2689;50.954;7.116;2023-12-07T00:20:16;3.60;99.90
5334;DHT22;2689;50.954;7.116;2023-12-07T00:22:42;3.60;99.90
5334;DHT22;2689;50.954;7.116;2023-12-07T00:25:09;3.60;99.90
5334;DHT22;2689;50.954;7.116;2023-12-07T00:27:36;3.60;99.90
5334;DHT22;2689;50.954;7.116;2023-12-07T00:30:06;3.60;99.90
5334;DHT22;2689;50.954;7.116;2023-12-07T00:32:35;3.50;99.90
5334;DHT22;2689;50.954;7.116;2023-12-07T00:35:02;3.40;99.90
5334;DHT22;2689;50.954;7.116;2023-12-07T00:37:29;3.40;99.90
5334;DHT22;2689;50.954;7.116;2023-12-07T00:39:56;3.30;99.90
5334;DHT22;2689;50.954;7.116;2023-12-07T00:42:23;3.20;99.90
5334;DHT22;2689;50.954;7.116;2023-12-07T00:44:51;3.20;99.90
5334;DHT22;2689;50.954;7.116;2023-12-07T00:47:17;3.10;99.90
5334;DHT22;2689;50.954;7.116;2023-12-07T00:49:45;3.10;99.90
5334;DHT22;2689;50.954;7.116;2023-12-07T00:52:14;3.00;99.90
5334;DHT22;2689;50.954;7.116;2023-12-07T00:54:41;2.90;99.90
5334;DHT22;2689;50.954;7.116;2023-12-07T00:57:08;2.90;99.90
5334;DHT22;2689;50.954;7.116;2023-12-07T00:59:35;2.80;99.90
5334;DHT22;2689;50.954;7.116;2023-12-07T01:02:02;2.80;99.90
5334;DHT22;2689;50.954;7.116;2023-12-07T01:04:29;2.70;99.90
5334;DHT22;2689;50.954;7.116;2023-12-07T01:06:58;2.70;99.90
5334;DHT22;2689;50.954;7.116;2023-12-07T01:09:25;2.60;99.90
5334;DHT22;2689;50.954;7.116;2023-12-07T01:11:52;2.60;99.90
5334;DHT22;2689;50.954;7.116;2023-12-07T01:14:19;2.60;99.90
5334;DHT22;2689;50.954;7.116;2023-12-07T01:16:46;2.60;99.90
5334;DHT22;2689;50.954;7.116;2023-12-07T01:19:13;2.60;99.90
5334;DHT22;2689;50.954;7.116;2023-12-07T01:21:40;2.60;99.90
5334;DHT22;2689;50.954;7.116;2023-12-07T01:24:08;2.60;99.90
5334;DHT22;2689;50.954;7.116;2023-12-07T01:26:35;2.60;99.90
5334;DHT22;2689;50.954;7.116;2023-12-07T01:29:01;2.70;99.90
5334;DHT22;2689;50.954;7.116;2023-12-07T01:31:29;2.80;99.90
5334;DHT22;2689;50.954;7.116;2023-12-07T01:33:55;2.90;99.90
5334;DHT22;2689;50.954;7.116;2023-12-07T01:36:22;2.90;99.90
5334;DHT22;2689;50.954;7.116;2023-12-07T01:38:48;3.00;99.90
5334;DHT22;2689;50.954;7.116;2023-12-07T01:41:16;3.10;99.90
5334;DHT22;2689;50.954;7.116;2023-12-07T01:43:45;3.10;99.90
5334;DHT22;2689;50.954;7.116;2023-12-07T01:46:13;3.20;99.90
5334;DHT22;2689;50.954;7.116;2023-12-07T01:48:40;3.30;99.90
5334;DHT22;2689;50.954;7.116;2023-12-07T01:51:08;3.30;99.90
5334;DHT22;2689;50.954;7.116;2023-12-07T01:53:35;3.30;99.90
5334;DHT22;2689;50.954;7.116;2023-12-07T01:56:13;3.40;99.90
5334;DHT22;2689;50.954;7.116;2023-12-07T01:58:47;3.40;99.90
5334;DHT22;2689;50.954;7.116;2023-12-07T02:01:18;3.50;99.90
5334;DHT22;2689;50.954;7.116;2023-12-07T02:03:47;3.50;99.90
5334;DHT22;2689;50.954;7.116;2023-12-07T02:06:14;3.60;99.90
5334;DHT22;2689;50.954;7.116;2023-12-07T02:08:41;3.60;99.90
5334;DHT22;2689;50.954;7.116;2023-12-07T02:11:10;3.60;99.90
5334;DHT22;2689;50.954;7.116;2023-12-07T02:13:36;3.60;99.90
5334;DHT22;2689;50.954;7.116;2023-12-07T02:16:11;3.70;99.90
5334;DHT22;2689;50.954;7.116;2023-12-07T02:18:44;3.70;99.90
5334;DHT22;2689;50.954;7.116;2023-12-07T02:21:18;3.80;99.90
5334;DHT22;2689;50.954;7.116;2023-12-07T02:23:51;3.80;99.90
5334;DHT22;2689;50.954;7.116;2023-12-07T02:26:20;3.80;99.90
5334;DHT22;2689;50.954;7.116;2023-12-07T02:28:48;3.80;99.90
5334;DHT22;2689;50.954;7.116;2023-12-07T02:31:15;3.90;99.90
5334;DHT22;2689;50.954;7.116;2023-12-07T02:33:42;4.00;99.90
5334;DHT22;2689;50.954;7.116;2023-12-07T02:36:10;4.00;99.90
5334;DHT22;2689;50.954;7.116;2023-12-07T02:38:38;4.10;99.90
5334;DHT22;2689;50.954;7.116;2023-12-07T02:41:06;4.10;99.90
5334;DHT22;2689;50.954;7.116;2023-12-07T02:43:34;4.20;99.90
5334;DHT22;2689;50.954;7.116;2023-12-07T02:46:02;4.20;99.90
5334;DHT22;2689;50.954;7.116;2023-12-07T02:48:31;4.20;99.90
5334;DHT22;2689;50.954;7.116;2023-12-07T02:50:58;4.20;99.90
5334;DHT22;2689;50.954;7.116;2023-12-07T02:53:25;4.30;99.90
5334;DHT22;2689;50.954;7.116;2023-12-07T02:55:51;4.30;99.90
5334;DHT22;2689;50.954;7.116;2023-12-07T02:58:18;4.40;99.90
5334;DHT22;2689;50.954;7.116;2023-12-07T03:00:45;4.40;99.90
5334;DHT22;2689;50.954;7.116;2023-12-07T03:03:13;4.40;99.90
5334;DHT22;2689;50.954;7.116;2023-12-07T03:05:39;4.40;99.90
5334;DHT22;2689;50.954;7.116;2023-12-07T03:08:06;4.50;99.90
5334;DHT22;2689;50.954;7.116;2023-12-07T03:10:34;4.50;99.90
5334;DHT22;2689;50.954;7.116;2023-12-07T03:13:01;4.50;99.90
5334;DHT22;2689;50.954;7.116;2023-12-07T03:15:28;4.50;99.90
5334;DHT22;2689;50.954;7.116;2023-12-07T03:17:54;4.60;99.90
5334;DHT22;2689;50.954;7.116;2023-12-07T03:20:22;4.60;99.90
5334;DHT22;2689;50.954;7.116;2023-12-07T03:22:49;4.60;99.90
5334;DHT22;2689;50.954;7.116;2023-12-07T03:25:16;4.60;99.90
5334;DHT22;2689;50.954;7.116;2023-12-07T03:27:42;4.70;99.90
5334;DHT22;2689;50.954;7.116;2023-12-07T03:30:10;4.70;99.90
5334;DHT22;2689;50.954;7.116;2023-12-07T03:32:37;4.60;99.90
5334;DHT22;2689;50.954;7.116;2023-12-07T03:35:06;4.60;99.90
5334;DHT22;2689;50.954;7.116;2023-12-07T03:37:34;4.60;99.90
5334;DHT22;2689;50.954;7.116;2023-12-07T03:40:01;4.70;99.90
5334;DHT22;2689;50.954;7.116;2023-12-07T03:42:30;4.70;99.90
5334;DHT22;2689;50.954;7.116;2023-12-07T03:44:56;4.80;99.90
5334;DHT22;2689;50.954;7.116;2023-12-07T03:47:23;4.80;99.90
5334;DHT22;2689;50.954;7.116;2023-12-07T03:49:51;4.80;99.90
5334;DHT22;2689;50.954;7.116;2023-12-07T03:52:21;4.70;99.90
5334;DHT22;2689;50.954;7.116;2023-12-07T03:54:49;4.70;99.90
5334;DHT22;2689;50.954;7.116;2023-12-07T03:57:16;4.60;99.90
5334;DHT22;2689;50.954;7.116;2023-12-07T03:59:41;4.60;99.90
5334;DHT22;2689;50.954;7.116;2023-12-07T04:02:08;4.60;99.90
5334;DHT22;2689;50.954;7.116;2023-12-07T04:04:35;4.60;99.90
5334;DHT22;2689;50.954;7.116;2023-12-07T04:07:01;4.70;99.90
5334;DHT22;2689;50.954;7.116;2023-12-07T04:09:28;4.60;99.90
5334;DHT22;2689;50.954;7.116;2023-12-07T04:11:57;4.60;99.90
5334;DHT22;2689;50.954;7.116;2023-12-07T04:14:26;4.70;99.90
5334;DHT22;2689;50.954;7.116;2023-12-07T04:16:53;4.70;99.90
5334;DHT22;2689;50.954;7.116;2023-12-07T04:19:20;4.80;99.90
5334;DHT22;2689;50.954;7.116;2023-12-07T04:21:46;4.90;99.90
5334;DHT22;2689;50.954;7.116;2023-12-07T04:24:13;4.90;99.90
5334;DHT22;2689;50.954;7.116;2023-12-07T04:26:40;4.90;99.90
5334;DHT22;2689;50.954;7.116;2023-12-07T04:29:08;4.90;99.90
5334;DHT22;2689;50.954;7.116;2023-12-07T04:31:35;4.90;99.90
5334;DHT22;2689;50.954;7.116;2023-12-07T04:34:02;4.90;99.90
5334;DHT22;2689;50.954;7.116;2023-12-07T04:36:28;4.90;99.90
5334;DHT22;2689;50.954;7.116;2023-12-07T04:38:55;4.90;99.90
5334;DHT22;2689;50.954;7.116;2023-12-07T04:41:22;4.90;99.90
5334;DHT22;2689;50.954;7.116;2023-12-07T04:43:48;4.90;99.90
5334;DHT22;2689;50.954;7.116;2023-12-07T04:46:16;4.90;99.90
5334;DHT22;2689;50.954;7.116;2023-12-07T04:48:43;4.90;99.90
5334;DHT22;2689;50.954;7.116;2023-12-07T04:51:10;4.80;99.90
5334;DHT22;2689;50.954;7.116;2023-12-07T04:53:36;4.90;99.90
5334;DHT22;2689;50.954;7.116;2023-12-07T04:56:04;4.80;99.90
5334;DHT22;2689;50.954;7.116;2023-12-07T04:58:31;4.80;99.90
5334;DHT22;2689;50.954;7.116;2023-12-07T05:00:57;4.80;99.90
5334;DHT22;2689;50.954;7.116;2023-12-07T05:03:26;4.80;99.90
5334;DHT22;2689;50.954;7.116;2023-12-07T05:05:53;4.70;99.90
5334;DHT22;2689;50.954;7.116;2023-12-07T05:08:19;4.60;99.90
5334;DHT22;2689;50.954;7.116;2023-12-07T05:10:46;4.60;99.90
5334;DHT22;2689;50.954;7.116;2023-12-07T05:13:13;4.50;99.90
5334;DHT22;2689;50.954;7.116;2023-12-07T05:15:40;4.30;99.90
5334;DHT22;2689;50.954;7.116;2023-12-07T05:18:06;4.20;99.90
5334;DHT22;2689;50.954;7.116;2023-12-07T05:20:34;4.20;99.90
5334;DHT22;2689;50.954;7.116;2023-12-07T05:23:04;4.20;99.90
5334;DHT22;2689;50.954;7.116;2023-12-07T05:25:31;4.10;99.90
5334;DHT22;2689;50.954;7.116;2023-12-07T05:27:58;4.10;99.90
5334;DHT22;2689;50.954;7.116;2023-12-07T05:30:25;4.10;99.90
5334;DHT22;2689;50.954;7.116;2023-12-07T05:32:53;4.10;99.90
5334;DHT22;2689;50.954;7.116;2023-12-07T05:35:20;4.10;99.90
5334;DHT22;2689;50.954;7.116;2023-12-07T05:37:48;4.10;99.90
5334;DHT22;2689;50.954;7.116;2023-12-07T05:40:15;4.00;99.90
5334;DHT22;2689;50.954;7.116;2023-12-07T05:42:42;4.00;99.90
5334;DHT22;2689;50.954;7.116;2023-12-07T05:45:09;4.00;99.90
5334;DHT22;2689;50.954;7.116;2023-12-07T05:47:35;4.00;99.90
5334;DHT22;2689;50.954;7.116;2023-12-07T05:50:02;4.00;99.90
5334;DHT22;2689;50.954;7.116;2023-12-07T05:52:29;4.10;99.90
5334;DHT22;2689;50.954;7.116;2023-12-07T05:54:57;4.10;99.90
5334;DHT22;2689;50.954;7.116;2023-12-07T05:57:26;4.10;99.90
5334;DHT22;2689;50.954;7.116;2023-12-07T05:59:53;4.00;99.90
5334;DHT22;2689;50.954;7.116;2023-12-07T06:02:20;3.90;99.90
5334;DHT22;2689;50.954;7.116;2023-12-07T06:04:47;3.80;99.90
5334;DHT22;2689;50.954;7.116;2023-12-07T06:07:15;3.70;99.90
5334;DHT22;2689;50.954;7.116;2023-12-07T06:09:41;3.70;99.90
5334;DHT22;2689;50.954;7.116;2023-12-07T06:12:09;3.60;99.90
5334;DHT22;2689;50.954;7.116;2023-12-07T06:14:36;3.60;99.90
5334;DHT22;2689;50.954;7.116;2023-12-07T06:17:03;3.60;99.90
5334;DHT22;2689;50.954;7.116;2023-12-07T06:19:30;3.60;99.90
5334;DHT22;2689;50.954;7.116;2023-12-07T06:21:57;3.50;99.90
5334;DHT22;2689;50.954;7.116;2023-12-07T06:24:24;3.40;99.90
5334;DHT22;2689;50.954;7.116;2023-12-07T06:26:50;3.30;99.90
5334;DHT22;2689;50.954;7.116;2023-12-07T06:29:18;3.20;99.90
5334;DHT22;2689;50.954;7.116;2023-12-07T06:31:48;3.20;99.90
5334;DHT22;2689;50.954;7.116;2023-12-07T06:34:14;3.20;99.90
5334;DHT22;2689;50.954;7.116;2023-12-07T06:36:41;3.10;99.90
5334;DHT22;2689;50.954;7.116;2023-12-07T06:39:10;3.20;99.90
5334;DHT22;2689;50.954;7.116;2023-12-07T06:41:37;3.10;99.90
5334;DHT22;2689;50.954;7.116;2023-12-07T06:44:04;3.10;99.90
5334;DHT22;2689;50.954;7.116;2023-12-07T06:46:32;3.10;99.90
5334;DHT22;2689;50.954;7.116;2023-12-07T06:48:58;3.10;99.90
5334;DHT22;2689;50.954;7.116;2023-12-07T06:51:25;3.10;99.90
5334;DHT22;2689;50.954;7.116;2023-12-07T06:53:52;3.00;99.90
5334;DHT22;2689;50.954;7.116;2023-12-07T06:56:19;3.00;99.90
5334;DHT22;2689;50.954;7.116;2023-12-07T06:58:45;3.00;99.90
5334;DHT22;2689;50.954;7.116;2023-12-07T07:01:13;2.90;99.90
5334;DHT22;2689;50.954;7.116;2023-12-07T07:03:41;2.90;99.90
5334;DHT22;2689;50.954;7.116;2023-12-07T07:06:08;2.90;99.90
5334;DHT22;2689;50.954;7.116;2023-12-07T07:08:35;2.90;99.90
5334;DHT22;2689;50.954;7.116;2023-12-07T07:11:11;2.90;99.90
5334;DHT22;2689;50.954;7.116;2023-12-07T07:13:38;2.90;99.90
5334;DHT22;2689;50.954;7.116;2023-12-07T07:16:06;2.90;99.90
5334;DHT22;2689;50.954;7.116;2023-12-07T07:18:33;3.00;99.90
5334;DHT22;2689;50.954;7.116;2023-12-07T07:21:02;2.90;99.90
5334;DHT22;2689;50.954;7.116;2023-12-07T07:23:30;2.90;99.90
5334;DHT22;2689;50.954;7.116;2023-12-07T07:25:56;2.80;99.90
5334;DHT22;2689;50.954;7.116;2023-12-07T07:28:23;2.80;99.90
5334;DHT22;2689;50.954;7.116;2023-12-07T07:30:50;2.80;99.90
5334;DHT22;2689;50.954;7.116;2023-12-07T07:33:18;2.80;99.90
5334;DHT22;2689;50.954;7.116;2023-12-07T07:35:45;2.80;99.90
5334;DHT22;2689;50.954;7.116;2023-12-07T07:38:13;2.80;99.90
5334;DHT22;2689;50.954;7.116;2023-12-07T07:40:40;2.80;99.90
5334;DHT22;2689;50.954;7.116;2023-12-07T07:43:07;2.80;99.90
5334;DHT22;2689;50.954;7.116;2023-12-07T07:45:34;2.80;99.90
5334;DHT22;2689;50.954;7.116;2023-12-07T07:48:01;2.80;99.90
5334;DHT22;2689;50.954;7.116;2023-12-07T07:50:28;2.80;99.90
5334;DHT22;2689;50.954;7.116;2023-12-07T07:52:55;2.80;99.90
5334;DHT22;2689;50.954;7.116;2023-12-07T07:55:23;2.70;99.90
5334;DHT22;2689;50.954;7.116;2023-12-07T07:57:49;2.70;99.90
5334;DHT22;2689;50.954;7.116;2023-12-07T08:00:16;2.80;99.90
5334;DHT22;2689;50.954;7.116;2023-12-07T08:02:45;2.80;99.90
5334;DHT22;2689;50.954;7.116;2023-12-07T08:05:12;2.80;99.90
5334;DHT22;2689;50.954;7.116;2023-12-07T08:07:40;2.80;99.90
5334;DHT22;2689;50.954;7.116;2023-12-07T08:10:07;2.90;99.90
5334;DHT22;2689;50.954;7.116;2023-12-07T08:12:36;3.00;99.90
5334;DHT22;2689;50.954;7.116;2023-12-07T08:15:04;3.00;99.90
5334;DHT22;2689;50.954;7.116;2023-12-07T08:17:36;3.00;99.90
5334;DHT22;2689;50.954;7.116;2023-12-07T08:20:04;3.00;99.90
5334;DHT22;2689;50.954;7.116;2023-12-07T08:22:32;3.00;99.90
5334;DHT22;2689;50.954;7.116;2023-12-07T08:24:59;3.10;99.90
5334;DHT22;2689;50.954;7.116;2023-12-07T08:27:30;3.10;99.90
5334;DHT22;2689;50.954;7.116;2023-12-07T08:29:59;3.20;99.90
5334;DHT22;2689;50.954;7.116;2023-12-07T08:32:25;3.20;99.90
5334;DHT22;2689;50.954;7.116;2023-12-07T08:34:52;3.20;99.90
5334;DHT22;2689;50.954;7.116;2023-12-07T08:37:20;3.20;99.90
5334;DHT22;2689;50.954;7.116;2023-12-07T08:39:46;3.20;99.90
5334;DHT22;2689;50.954;7.116;2023-12-07T08:42:14;3.30;99.90
5334;DHT22;2689;50.954;7.116;2023-12-07T08:44:42;3.70;99.90
5334;DHT22;2689;50.954;7.116;2023-12-07T08:47:10;4.30;99.90
5334;DHT22;2689;50.954;7.116;2023-12-07T08:49:37;4.80;99.90
5334;DHT22;2689;50.954;7.116;2023-12-07T08:52:04;5.60;99.90
5334;DHT22;2689;50.954;7.116;2023-12-07T08:54:31;6.00;99.90
5334;DHT22;2689;50.954;7.116;2023-12-07T08:57:00;6.80;99.90
5334;DHT22;2689;50.954;7.116;2023-12-07T08:59:27;7.40;99.90
5334;DHT22;2689;50.954;7.116;2023-12-07T09:01:53;7.70;99.90
5334;DHT22;2689;50.954;7.116;2023-12-07T09:04:22;8.30;99.90
5334;DHT22;2689;50.954;7.116;2023-12-07T09:06:48;8.80;99.90
5334;DHT22;2689;50.954;7.116;2023-12-07T09:09:15;9.30;96.60
5334;DHT22;2689;50.954;7.116;2023-12-07T09:11:42;9.70;95.10
5334;DHT22;2689;50.954;7.116;2023-12-07T09:14:09;10.00;93.50
5334;DHT22;2689;50.954;7.116;2023-12-07T09:16:42;10.20;92.70
5334;DHT22;2689;50.954;7.116;2023-12-07T09:19:10;9.40;91.50
5334;DHT22;2689;50.954;7.116;2023-12-07T09:21:39;8.80;93.20
5334;DHT22;2689;50.954;7.116;2023-12-07T09:24:07;8.70;92.80
5334;DHT22;2689;50.954;7.116;2023-12-07T09:26:34;8.60;93.50
5334;DHT22;2689;50.954;7.116;2023-12-07T09:29:02;8.10;93.40
5334;DHT22;2689;50.954;7.116;2023-12-07T09:31:29;7.20;95.00
5334;DHT22;2689;50.954;7.116;2023-12-07T09:33:55;6.60;97.60
5334;DHT22;2689;50.954;7.116;2023-12-07T09:36:22;6.70;98.00
5334;DHT22;2689;50.954;7.116;2023-12-07T09:38:50;6.50;98.60
5334;DHT22;2689;50.954;7.116;2023-12-07T09:41:17;6.00;99.90
5334;DHT22;2689;50.954;7.116;2023-12-07T09:43:45;5.80;99.90
5334;DHT22;2689;50.954;7.116;2023-12-07T09:49:32;5.10;99.90
5334;DHT22;2689;50.954;7.116;2023-12-07T09:51:59;4.80;99.90
5334;DHT22;2689;50.954;7.116;2023-12-07T09:54:29;4.50;99.90
5334;DHT22;2689;50.954;7.116;2023-12-07T09:56:56;4.40;99.90
5334;DHT22;2689;50.954;7.116;2023-12-07T09:59:23;4.30;99.90
5334;DHT22;2689;50.954;7.116;2023-12-07T10:01:49;4.10;99.90
5334;DHT22;2689;50.954;7.116;2023-12-07T10:04:16;4.20;99.90
5334;DHT22;2689;50.954;7.116;2023-12-07T10:06:44;4.10;99.90
5334;DHT22;2689;50.954;7.116;2023-12-07T10:09:11;4.00;99.90
5334;DHT22;2689;50.954;7.116;2023-12-07T10:11:40;4.00;99.90
5334;DHT22;2689;50.954;7.116;2023-12-07T10:14:08;4.00;99.90
5334;DHT22;2689;50.954;7.116;2023-12-07T10:16:36;3.80;99.90
5334;DHT22;2689;50.954;7.116;2023-12-07T10:19:13;3.80;99.90
5334;DHT22;2689;50.954;7.116;2023-12-07T10:21:41;4.10;99.90
5334;DHT22;2689;50.954;7.116;2023-12-07T10:24:09;4.40;99.90
5334;DHT22;2689;50.954;7.116;2023-12-07T10:26:35;4.50;99.90
5334;DHT22;2689;50.954;7.116;2023-12-07T10:29:04;4.30;99.90
5334;DHT22;2689;50.954;7.116;2023-12-07T10:31:31;4.20;99.90
5334;DHT22;2689;50.954;7.116;2023-12-07T10:33:59;4.20;99.90
5334;DHT22;2689;50.954;7.116;2023-12-07T10:36:25;4.30;99.90
5334;DHT22;2689;50.954;7.116;2023-12-07T10:38:54;4.10;99.90
5334;DHT22;2689;50.954;7.116;2023-12-07T10:41:21;4.10;99.90
5334;DHT22;2689;50.954;7.116;2023-12-07T10:43:51;4.00;99.90
5334;DHT22;2689;50.954;7.116;2023-12-07T10:46:21;4.00;99.90
5334;DHT22;2689;50.954;7.116;2023-12-07T10:48:48;4.10;99.90
5334;DHT22;2689;50.954;7.116;2023-12-07T10:51:20;4.00;99.90
5334;DHT22;2689;50.954;7.116;2023-12-07T10:53:50;4.10;99.90
5334;DHT22;2689;50.954;7.116;2023-12-07T10:56:28;4.20;99.90
5334;DHT22;2689;50.954;7.116;2023-12-07T10:58:57;4.30;99.90
5334;DHT22;2689;50.954;7.116;2023-12-07T11:01:28;4.50;99.90
5334;DHT22;2689;50.954;7.116;2023-12-07T11:03:56;4.60;99.90
5334;DHT22;2689;50.954;7.116;2023-12-07T11:06:23;4.40;99.90
5334;DHT22;2689;50.954;7.116;2023-12-07T11:08:54;4.50;99.90
5334;DHT22;2689;50.954;7.116;2023-12-07T11:11:27;4.60;99.90
5334;DHT22;2689;50.954;7.116;2023-12-07T11:13:58;4.70;99.90
5334;DHT22;2689;50.954;7.116;2023-12-07T11:16:31;4.60;99.90
5334;DHT22;2689;50.954;7.116;2023-12-07T11:18:58;4.40;99.90
5334;DHT22;2689;50.954;7.116;2023-12-07T11:21:26;4.50;99.90
5334;DHT22;2689;50.954;7.116;2023-12-07T11:23:53;4.60;99.90
5334;DHT22;2689;50.954;7.116;2023-12-07T11:26:20;4.60;99.90
5334;DHT22;2689;50.954;7.116;2023-12-07T11:28:48;4.80;99.90
5334;DHT22;2689;50.954;7.116;2023-12-07T11:31:16;5.20;99.90
5334;DHT22;2689;50.954;7.116;2023-12-07T11:33:44;5.20;99.90
5334;DHT22;2689;50.954;7.116;2023-12-07T11:36:14;4.90;99.90
5334;DHT22;2689;50.954;7.116;2023-12-07T11:41:44;4.80;99.90
5334;DHT22;2689;50.954;7.116;2023-12-07T11:44:11;4.80;99.90
5334;DHT22;2689;50.954;7.116;2023-12-07T11:46:40;4.70;99.90
5334;DHT22;2689;50.954;7.116;2023-12-07T11:49:08;4.90;99.90
5334;DHT22;2689;50.954;7.116;2023-12-07T11:51:36;5.00;99.90
5334;DHT22;2689;50.954;7.116;2023-12-07T11:54:04;5.10;99.90
5334;DHT22;2689;50.954;7.116;2023-12-07T11:56:31;5.20;99.90
5334;DHT22;2689;50.954;7.116;2023-12-07T11:58:58;5.30;99.90
5334;DHT22;2689;50.954;7.116;2023-12-07T12:01:25;5.30;99.90
5334;DHT22;2689;50.954;7.116;2023-12-07T12:03:53;5.30;99.90
5334;DHT22;2689;50.954;7.116;2023-12-07T12:06:23;5.50;99.90
5334;DHT22;2689;50.954;7.116;2023-12-07T12:08:51;5.50;99.90
5334;DHT22;2689;50.954;7.116;2023-12-07T12:11:18;5.60;99.90
5334;DHT22;2689;50.954;7.116;2023-12-07T12:13:45;5.50;99.90
5334;DHT22;2689;50.954;7.116;2023-12-07T12:16:13;5.60;99.90
5334;DHT22;2689;50.954;7.116;2023-12-07T12:18:40;5.70;99.90
5334;DHT22;2689;50.954;7.116;2023-12-07T12:21:08;5.80;99.90
5334;DHT22;2689;50.954;7.116;2023-12-07T12:23:36;5.80;99.90
5334;DHT22;2689;50.954;7.116;2023-12-07T12:26:08;5.90;99.90
5334;DHT22;2689;50.954;7.116;2023-12-07T12:28:37;6.00;99.90
5334;DHT22;2689;50.954;7.116;2023-12-07T12:31:09;6.00;99.90
5334;DHT22;2689;50.954;7.116;2023-12-07T12:33:37;5.90;99.90
5334;DHT22;2689;50.954;7.116;2023-12-07T12:36:06;5.80;99.90
5334;DHT22;2689;50.954;7.116;2023-12-07T12:38:37;5.80;99.90
5334;DHT22;2689;50.954;7.116;2023-12-07T12:41:06;5.90;99.90
5334;DHT22;2689;50.954;7.116;2023-12-07T12:43:34;5.90;99.90
5334;DHT22;2689;50.954;7.116;2023-12-07T12:46:01;5.90;99.90
5334;DHT22;2689;50.954;7.116;2023-12-07T12:48:28;6.00;99.90
5334;DHT22;2689;50.954;7.116;2023-12-07T12:50:55;5.90;99.90
5334;DHT22;2689;50.954;7.116;2023-12-07T12:53:21;5.90;99.90
5334;DHT22;2689;50.954;7.116;2023-12-07T12:55:52;5.90;99.90
5334;DHT22;2689;50.954;7.116;2023-12-07T12:58:19;5.90;99.90
5334;DHT22;2689;50.954;7.116;2023-12-07T13:00:49;5.80;99.90
5334;DHT22;2689;50.954;7.116;2023-12-07T13:03:16;5.70;99.90
5334;DHT22;2689;50.954;7.116;2023-12-07T13:05:43;5.80;99.90
5334;DHT22;2689;50.954;7.116;2023-12-07T13:08:16;5.70;99.90
5334;DHT22;2689;50.954;7.116;2023-12-07T13:10:43;5.70;99.90
5334;DHT22;2689;50.954;7.116;2023-12-07T13:13:13;5.80;99.90
5334;DHT22;2689;50.954;7.116;2023-12-07T13:15:40;5.80;99.90
5334;DHT22;2689;50.954;7.116;2023-12-07T13:18:09;5.70;99.90
5334;DHT22;2689;50.954;7.116;2023-12-07T13:20:36;5.60;99.90
5334;DHT22;2689;50.954;7.116;2023-12-07T13:23:04;5.60;99.90
5334;DHT22;2689;50.954;7.116;2023-12-07T13:25:33;5.50;99.90
5334;DHT22;2689;50.954;7.116;2023-12-07T13:28:00;5.50;99.90
5334;DHT22;2689;50.954;7.116;2023-12-07T13:30:29;5.50;99.90
5334;DHT22;2689;50.954;7.116;2023-12-07T13:32:59;5.60;99.90
5334;DHT22;2689;50.954;7.116;2023-12-07T13:35:30;5.60;99.90
5334;DHT22;2689;50.954;7.116;2023-12-07T13:37:58;5.60;99.90
5334;DHT22;2689;50.954;7.116;2023-12-07T13:40:27;5.60;99.90
5334;DHT22;2689;50.954;7.116;2023-12-07T13:42:54;5.50;99.90
5334;DHT22;2689;50.954;7.116;2023-12-07T13:45:20;5.50;99.90
5334;DHT22;2689;50.954;7.116;2023-12-07T13:47:48;5.50;99.90
5334;DHT22;2689;50.954;7.116;2023-12-07T13:50:15;5.60;99.90
5334;DHT22;2689;50.954;7.116;2023-12-07T13:52:42;5.60;99.90
5334;DHT22;2689;50.954;7.116;2023-12-07T13:55:09;5.50;99.90
5334;DHT22;2689;50.954;7.116;2023-12-07T13:57:35;5.50;99.90
5334;DHT22;2689;50.954;7.116;2023-12-07T14:00:03;5.60;99.90
5334;DHT22;2689;50.954;7.116;2023-12-07T14:02:30;5.50;99.90
5334;DHT22;2689;50.954;7.116;2023-12-07T14:05:00;5.40;99.90
5334;DHT22;2689;50.954;7.116;2023-12-07T14:07:27;5.50;99.90
5334;DHT22;2689;50.954;7.116;2023-12-07T14:09:54;5.40;99.90
5334;DHT22;2689;50.954;7.116;2023-12-07T14:12:20;5.40;99.90
5334;DHT22;2689;50.954;7.116;2023-12-07T14:14:49;5.40;99.90
5334;DHT22;2689;50.954;7.116;2023-12-07T14:17:16;5.40;99.90
5334;DHT22;2689;50.954;7.116;2023-12-07T14:19:44;5.30;99.90
5334;DHT22;2689;50.954;7.116;2023-12-07T14:22:16;5.30;99.90
5334;DHT22;2689;50.954;7.116;2023-12-07T14:24:43;5.20;99.90
5334;DHT22;2689;50.954;7.116;2023-12-07T14:27:10;5.20;99.90
5334;DHT22;2689;50.954;7.116;2023-12-07T14:29:37;5.20;99.90
5334;DHT22;2689;50.954;7.116;2023-12-07T14:32:04;5.10;99.90
5334;DHT22;2689;50.954;7.116;2023-12-07T14:34:34;5.00;99.90
5334;DHT22;2689;50.954;7.116;2023-12-07T14:37:02;5.00;99.90
5334;DHT22;2689;50.954;7.116;2023-12-07T14:39:34;5.00;99.90
5334;DHT22;2689;50.954;7.116;2023-12-07T14:42:01;4.90;99.90
5334;DHT22;2689;50.954;7.116;2023-12-07T14:44:28;4.90;99.90
5334;DHT22;2689;50.954;7.116;2023-12-07T14:46:55;4.80;99.90
5334;DHT22;2689;50.954;7.116;2023-12-07T14:49:22;4.80;99.90
5334;DHT22;2689;50.954;7.116;2023-12-07T14:51:49;4.80;99.90
5334;DHT22;2689;50.954;7.116;2023-12-07T14:54:17;4.70;99.90
5334;DHT22;2689;50.954;7.116;2023-12-07T14:56:47;4.70;99.90
5334;DHT22;2689;50.954;7.116;2023-12-07T14:59:14;4.60;99.90
5334;DHT22;2689;50.954;7.116;2023-12-07T15:01:42;4.60;99.90
5334;DHT22;2689;50.954;7.116;2023-12-07T15:04:09;4.60;99.90
5334;DHT22;2689;50.954;7.116;2023-12-07T15:06:36;4.60;99.90
5334;DHT22;2689;50.954;7.116;2023-12-07T15:09:03;4.50;99.90
5334;DHT22;2689;50.954;7.116;2023-12-07T15:11:35;4.50;99.90
5334;DHT22;2689;50.954;7.116;2023-12-07T15:14:03;4.50;99.90
5334;DHT22;2689;50.954;7.116;2023-12-07T15:16:30;4.40;99.90
5334;DHT22;2689;50.954;7.116;2023-12-07T15:18:58;4.40;99.90
5334;DHT22;2689;50.954;7.116;2023-12-07T15:21:25;4.30;99.90
5334;DHT22;2689;50.954;7.116;2023-12-07T15:23:51;4.30;99.90
5334;DHT22;2689;50.954;7.116;2023-12-07T15:26:18;4.20;99.90
5334;DHT22;2689;50.954;7.116;2023-12-07T15:28:46;4.20;99.90
5334;DHT22;2689;50.954;7.116;2023-12-07T15:31:14;4.20;99.90
5334;DHT22;2689;50.954;7.116;2023-12-07T15:33:41;4.10;99.90
5334;DHT22;2689;50.954;7.116;2023-12-07T15:36:08;4.10;99.90
5334;DHT22;2689;50.954;7.116;2023-12-07T15:38:35;4.00;99.90
5334;DHT22;2689;50.954;7.116;2023-12-07T15:41:03;4.00;99.90
5334;DHT22;2689;50.954;7.116;2023-12-07T15:43:30;3.90;99.90
5334;DHT22;2689;50.954;7.116;2023-12-07T15:45:59;3.90;99.90
5334;DHT22;2689;50.954;7.116;2023-12-07T15:48:27;3.80;99.90
5334;DHT22;2689;50.954;7.116;2023-12-07T15:50:53;3.80;99.90
5334;DHT22;2689;50.954;7.116;2023-12-07T15:53:20;3.70;99.90
5334;DHT22;2689;50.954;7.116;2023-12-07T15:55:47;3.70;99.90
5334;DHT22;2689;50.954;7.116;2023-12-07T15:58:14;3.70;99.90
5334;DHT22;2689;50.954;7.116;2023-12-07T16:00:43;3.70;99.90
5334;DHT22;2689;50.954;7.116;2023-12-07T16:03:10;3.60;99.90
5334;DHT22;2689;50.954;7.116;2023-12-07T16:05:38;3.60;99.90
5334;DHT22;2689;50.954;7.116;2023-12-07T16:08:04;3.60;99.90
5334;DHT22;2689;50.954;7.116;2023-12-07T16:10:31;3.60;99.90
5334;DHT22;2689;50.954;7.116;2023-12-07T16:12:58;3.60;99.90
5334;DHT22;2689;50.954;7.116;2023-12-07T16:15:25;3.50;99.90
5334;DHT22;2689;50.954;7.116;2023-12-07T16:17:52;3.50;99.90
5334;DHT22;2689;50.954;7.116;2023-12-07T16:20:20;3.50;99.90
5334;DHT22;2689;50.954;7.116;2023-12-07T16:22:48;3.50;99.90
5334;DHT22;2689;50.954;7.116;2023-12-07T16:25:15;3.50;99.90